Time;durP1;ratioP1;P1;durP2;ratioP2;P2;SDS_P1;SDS_P2;PMS_P1;PMS_P2;Temp;Humidity;BMP_temperature;BMP_pressure;BME280_temperature;BME280_humidity;BME280_pressure;Samples;Min_cycle;Max_cycle;Signal;HPM_P1;HPM_P2
2022/06/26 00:02:04;;;;;;;9.73;3.30;;;;;;;22.37;50.68;98809.64;1672202;84;21025;-80
2022/06/26 00:04:30;;;;;;;7.62;3.42;;;;;;;22.36;51.41;98806.66;1679680;84;21493;-81
2022/06/26 00:06:59;;;;;;;11.40;3.15;;;;;;;22.34;50.50;98810.36;1671575;84;21018;-80
2022/06/26 00:09:27;;;;;;;6.20;3.05;;;;;;;22.28;50.98;98810.35;1668129;84;21018;-82
2022/06/26 00:11:54;;;;;;;11.95;3.30;;;;;;;22.22;50.63;98820.94;1668401;84;21025;-81
2022/06/26 00:14:21;;;;;;;10.05;3.20;;;;;;;22.17;51.91;98827.05;1669362;84;21543;-80
2022/06/26 00:16:48;;;;;;;8.60;3.15;;;;;;;22.10;51.80;98829.80;1675776;84;21012;-80
2022/06/26 00:19:15;;;;;;;6.42;3.00;;;;;;;22.07;51.17;98833.19;1679402;84;21552;-80
2022/06/26 00:21:42;;;;;;;5.78;3.33;;;;;;;22.02;51.72;98837.03;1674378;84;20984;-81
2022/06/26 00:24:08;;;;;;;8.58;3.27;;;;;;;22.00;51.53;98834.98;1671882;84;21029;-80
2022/06/26 00:26:35;;;;;;;6.08;3.20;;;;;;;21.96;51.47;98836.15;1677509;84;21034;-80
2022/06/26 00:29:02;;;;;;;6.72;2.90;;;;;;;21.96;51.82;98838.80;1679409;84;20981;-80
2022/06/26 00:31:29;;;;;;;6.87;2.90;;;;;;;21.94;51.18;98838.07;1677975;84;20989;-81
2022/06/26 00:33:56;;;;;;;6.40;3.12;;;;;;;21.91;52.15;98833.03;1677577;84;20958;-80
2022/06/26 00:36:23;;;;;;;6.03;2.83;;;;;;;21.91;52.75;98833.03;1679485;84;20986;-80
2022/06/26 00:38:51;;;;;;;6.25;2.98;;;;;;;21.90;51.91;98839.27;1678052;84;20970;-81
2022/06/26 00:41:18;;;;;;;9.48;3.08;;;;;;;21.89;51.58;98840.73;1663078;84;20958;-80
2022/06/26 00:43:45;;;;;;;5.83;3.00;;;;;;;21.86;51.91;98848.40;1679865;84;21037;-81
2022/06/26 00:46:12;;;;;;;6.40;2.80;;;;;;;21.84;52.07;98848.99;1675100;84;20978;-81
2022/06/26 00:48:38;;;;;;;10.65;3.08;;;;;;;21.80;51.70;98857.64;1674326;84;21469;-80
2022/06/26 00:51:05;;;;;;;10.18;3.08;;;;;;;21.78;52.14;98854.75;1679272;84;20994;-80
2022/06/26 00:53:32;;;;;;;6.12;3.02;;;;;;;21.76;53.24;98852.22;1674641;84;20985;-81
2022/06/26 00:55:59;;;;;;;7.65;3.40;;;;;;;21.78;53.03;98861.37;1670169;84;21022;-81
2022/06/26 00:58:27;;;;;;;6.53;3.45;;;;;;;21.78;52.60;98865.34;1700075;83;21508;-80
2022/06/26 01:00:54;;;;;;;6.83;3.45;;;;;;;21.76;52.56;98869.90;1703526;83;21043;-81
2022/06/26 01:03:21;;;;;;;9.30;2.80;;;;;;;21.73;53.28;98862.21;1723531;83;21007;-80
2022/06/26 01:05:48;;;;;;;11.30;3.10;;;;;;;21.69;52.51;98860.75;1694600;83;20992;-80
2022/06/26 01:08:15;;;;;;;10.13;3.55;;;;;;;21.67;52.94;98858.70;1702761;83;21021;-80
2022/06/26 01:10:42;;;;;;;7.05;3.15;;;;;;;21.63;52.75;98863.38;1693498;83;20968;-80
2022/06/26 01:13:09;;;;;;;11.18;3.75;;;;;;;21.62;52.75;98868.28;1703494;83;21012;-80
2022/06/26 01:15:36;;;;;;;10.75;3.50;;;;;;;21.62;53.52;98869.60;1671409;83;21015;-80
2022/06/26 01:18:04;;;;;;;7.60;3.25;;;;;;;21.63;53.80;98876.11;1695288;84;20977;-79
2022/06/26 01:20:31;;;;;;;6.42;3.00;;;;;;;21.63;53.80;98870.82;1660725;86;21602;-80
2022/06/26 01:23:07;;;;;;;8.23;2.72;;;;;;;21.66;53.55;98873.70;1651825;85;21012;-80
2022/06/26 01:25:47;;;;;;;8.58;2.65;;;;;;;21.66;54.20;98872.39;1640846;86;21039;-80
2022/06/26 01:28:15;;;;;;;11.85;2.90;;;;;;;21.65;52.91;98878.65;1677129;84;21052;-81
2022/06/26 01:30:43;;;;;;;7.33;2.90;;;;;;;21.57;53.56;98884.50;1670434;84;21020;-80
2022/06/26 01:33:10;;;;;;;12.37;3.00;;;;;;;21.54;54.58;98878.10;1677446;84;21036;-80
2022/06/26 01:35:37;;;;;;;8.23;3.00;;;;;;;21.49;53.71;98882.91;1695916;83;21068;-80
2022/06/26 01:38:18;;;;;;;5.20;3.02;;;;;;;21.47;54.00;98881.31;1693233;83;21551;-80
2022/06/26 01:40:45;;;;;;;5.65;2.90;;;;;;;21.40;53.87;98883.53;1682684;84;21026;-81
2022/06/26 01:43:16;;;;;;;7.35;3.52;;;;;;;21.34;55.08;98878.22;1697597;84;20998;-81
2022/06/26 01:45:50;;;;;;;7.12;3.70;;;;;;;21.33;54.68;98887.57;1690702;83;21013;-82
2022/06/26 01:48:18;;;;;;;7.78;3.80;;;;;;;21.33;54.50;98883.61;1699718;83;20988;-82
2022/06/26 01:50:46;;;;;;;9.93;3.92;;;;;;;21.31;54.72;98888.16;1695212;83;21046;-81
2022/06/26 01:53:14;;;;;;;10.72;4.58;;;;;;;21.30;55.73;98894.42;1708375;83;20988;-80
2022/06/26 01:55:43;;;;;;;9.43;4.95;;;;;;;21.27;54.24;98890.21;1728623;83;21544;-79
2022/06/26 01:58:12;;;;;;;10.63;6.42;;;;;;;21.25;54.39;98891.64;1696582;83;20999;-79
2022/06/26 02:00:43;;;;;;;13.45;8.00;;;;;;;21.24;54.35;98895.22;1697409;84;21009;-80
2022/06/26 02:03:13;;;;;;;9.80;7.22;;;;;;;21.23;54.77;98898.84;1662349;84;21059;-80
2022/06/26 02:05:41;;;;;;;10.48;6.00;;;;;;;21.20;54.89;98893.76;1697620;83;21052;-80
2022/06/26 02:08:09;;;;;;;9.23;5.80;;;;;;;21.17;55.21;98894.45;1667856;84;21094;-81
2022/06/26 02:13:36;;;;;;;11.85;4.20;;;;;;;21.09;55.89;98901.63;1673191;84;21027;-80
2022/06/26 02:16:08;;;;;;;8.83;3.72;;;;;;;21.09;55.90;98910.02;1652499;86;21028;-80
2022/06/26 02:18:36;;;;;;;10.15;3.80;;;;;;;21.08;56.12;98914.47;1671570;84;20976;-80
2022/06/26 02:21:06;;;;;;;7.53;4.62;;;;;;;21.04;56.33;98912.52;1688205;84;20978;-80
2022/06/26 02:23:33;;;;;;;12.55;5.70;;;;;;;21.05;55.90;98916.02;1689008;84;21047;-79
2022/06/26 02:26:02;;;;;;;14.38;6.20;;;;;;;21.04;56.44;98919.60;1668595;84;21519;-80
2022/06/26 02:28:28;;;;;;;8.08;4.85;;;;;;;21.05;57.79;98909.41;1633504;86;21066;-80
2022/06/26 02:30:56;;;;;;;8.83;3.72;;;;;;;21.06;57.26;98916.38;1675084;84;21013;-81
2022/06/26 02:33:25;;;;;;;7.25;3.50;;;;;;;21.05;58.12;98914.70;1673914;84;21008;-81
2022/06/26 02:35:54;;;;;;;7.22;3.42;;;;;;;21.04;56.78;98919.60;1671642;84;21033;-81
2022/06/26 02:38:23;;;;;;;8.93;3.52;;;;;;;21.03;57.73;98921.41;1669927;83;21040;-81
2022/06/26 02:40:51;;;;;;;12.93;5.03;;;;;;;21.02;56.76;98926.80;1693071;83;20996;-80
2022/06/26 02:43:19;;;;;;;10.72;6.28;;;;;;;21.01;56.15;98930.41;1704901;83;21048;-79
2022/06/26 02:45:46;;;;;;;12.05;4.50;;;;;;;20.96;56.83;98925.43;1687147;84;21001;-80
2022/06/26 02:48:13;;;;;;;10.25;4.37;;;;;;;20.95;57.69;98933.45;1687667;84;20997;-80
2022/06/26 02:50:40;;;;;;;11.95;4.10;;;;;;;20.91;57.31;98936.81;1682183;84;20976;-80
2022/06/26 02:53:09;;;;;;;9.93;3.83;;;;;;;20.87;57.46;98935.34;1697432;84;20977;-81
2022/06/26 02:55:36;;;;;;;6.97;3.58;;;;;;;20.85;57.13;98937.25;1671047;83;21061;-80
2022/06/26 02:58:04;;;;;;;10.10;4.37;;;;;;;20.88;57.03;98942.79;1696454;84;21506;-79
2022/06/26 03:00:33;;;;;;;6.28;3.50;;;;;;;20.82;57.45;98935.64;1680854;83;21519;-80
2022/06/26 03:03:01;;;;;;;8.65;3.60;;;;;;;20.79;58.07;98937.20;1701180;83;20992;-80
2022/06/26 03:05:30;;;;;;;10.28;3.00;;;;;;;20.81;57.96;98940.58;1692888;83;21024;-80
2022/06/26 03:07:58;;;;;;;7.45;2.83;;;;;;;20.81;57.73;98936.61;1681362;84;21013;-80
2022/06/26 03:10:25;;;;;;;10.80;2.90;;;;;;;20.83;58.23;98938.67;1690129;83;21079;-80
2022/06/26 03:12:52;;;;;;;8.38;2.62;;;;;;;20.82;58.94;98944.89;1723234;83;21473;-80
2022/06/26 03:15:20;;;;;;;10.65;3.20;;;;;;;20.84;58.24;98943.47;1724562;83;21012;-81
2022/06/26 03:17:47;;;;;;;7.72;2.67;;;;;;;20.85;58.66;98943.38;1670782;84;21027;-80
2022/06/26 03:20:19;;;;;;;7.60;2.45;;;;;;;20.86;58.04;98943.72;1705156;83;21028;-80
2022/06/26 03:22:47;;;;;;;5.53;2.70;;;;;;;20.86;58.91;98946.36;1699802;83;21480;-80
2022/06/26 03:25:15;;;;;;;6.20;2.70;;;;;;;20.89;57.54;98947.10;1705778;83;21067;-81
2022/06/26 03:27:42;;;;;;;6.55;2.65;;;;;;;20.88;58.18;98949.39;1691395;83;21477;-79
2022/06/26 03:30:11;;;;;;;7.92;2.70;;;;;;;20.93;57.30;98953.41;1720879;83;20969;-80
2022/06/26 03:32:40;;;;;;;11.20;2.80;;;;;;;20.91;58.13;98953.12;1694706;83;21013;-80
2022/06/26 03:35:11;;;;;;;10.20;2.72;;;;;;;20.92;57.50;98950.38;1719628;83;21000;-80
2022/06/26 03:37:37;;;;;;;5.55;2.35;;;;;;;20.91;58.44;98952.67;1704210;82;21013;-81
2022/06/26 03:40:07;;;;;;;8.58;2.83;;;;;;;20.89;57.88;98951.06;1709568;83;21441;-81
2022/06/26 03:42:34;;;;;;;8.85;2.42;;;;;;;20.90;57.80;98954.09;1675666;84;21057;-81
2022/06/26 03:45:01;;;;;;;5.72;2.65;;;;;;;20.92;57.77;98956.15;1712244;83;21799;-81
2022/06/26 03:47:28;;;;;;;6.47;2.75;;;;;;;20.93;58.22;98960.02;1708324;83;21047;-81
2022/06/26 03:49:55;;;;;;;8.13;2.75;;;;;;;20.96;57.53;98965.55;1713300;83;20980;-80
2022/06/26 03:52:24;;;;;;;10.95;3.52;;;;;;;20.96;58.58;98966.88;1715029;83;20988;-80
2022/06/26 03:54:52;;;;;;;6.72;3.10;;;;;;;20.95;59.13;98970.00;1713428;83;20984;-79
2022/06/26 03:57:21;;;;;;;6.58;2.52;;;;;;;20.94;58.29;98969.61;1700313;83;21143;-80
2022/06/26 03:59:49;;;;;;;9.25;3.05;;;;;;;20.97;57.96;98967.22;1705931;83;21012;-80
2022/06/26 04:02:24;;;;;;;10.85;2.67;;;;;;;20.98;58.31;98969.77;1703783;83;21176;-80
2022/06/26 04:04:50;;;;;;;10.32;2.60;;;;;;;21.03;58.42;98978.72;1701076;83;20984;-80
2022/06/26 04:07:17;;;;;;;5.55;2.50;;;;;;;21.06;57.75;98983.28;1705537;84;21092;-79
2022/06/26 04:09:46;;;;;;;9.33;2.75;;;;;;;21.08;57.64;98984.51;1704034;83;21032;-79
2022/06/26 04:12:15;;;;;;;10.72;2.75;;;;;;;21.09;57.69;98987.53;1705139;83;21012;-79
2022/06/26 04:14:42;;;;;;;10.93;2.72;;;;;;;21.13;57.65;98989.45;1704134;83;20953;-80
2022/06/26 04:17:10;;;;;;;5.85;2.65;;;;;;;21.14;57.97;98993.33;1726628;83;21060;-79
2022/06/26 04:19:38;;;;;;;4.70;2.30;;;;;;;21.17;58.42;98991.80;1702881;83;21500;-80
2022/06/26 04:22:06;;;;;;;6.05;2.52;;;;;;;21.17;58.08;98995.77;1705872;83;20996;-80
2022/06/26 04:24:33;;;;;;;6.30;2.80;;;;;;;21.22;58.45;99002.04;1701904;83;20980;-79
2022/06/26 04:27:00;;;;;;;10.98;2.60;;;;;;;21.24;57.70;99000.13;1705858;83;20981;-79
2022/06/26 04:29:27;;;;;;;7.12;2.30;;;;;;;21.20;58.53;98999.50;1703616;83;21000;-80
2022/06/26 04:31:54;;;;;;;4.92;2.45;;;;;;;21.19;59.04;99006.24;1704064;83;21482;-80
2022/06/26 04:34:23;;;;;;;8.25;2.40;;;;;;;21.17;58.33;99005.02;1705154;83;20969;-79
2022/06/26 04:36:51;;;;;;;9.48;2.50;;;;;;;21.19;58.17;99002.27;1706185;83;21035;-79
2022/06/26 04:39:20;;;;;;;7.58;3.10;;;;;;;21.17;58.53;99003.70;1722895;83;21044;-80
2022/06/26 04:41:48;;;;;;;6.78;2.52;;;;;;;21.18;58.28;99006.69;1689525;83;20969;-79
2022/06/26 04:44:17;;;;;;;6.55;2.72;;;;;;;21.13;59.26;99002.67;1696175;83;21047;-78
2022/06/26 04:46:46;;;;;;;16.52;2.72;;;;;;;21.13;58.87;99001.36;1694923;83;21070;-79
2022/06/26 04:49:14;;;;;;;5.45;2.12;;;;;;;21.10;58.64;98998.46;1723229;83;21008;-79
2022/06/26 04:51:41;;;;;;;11.30;2.52;;;;;;;21.09;58.81;98998.56;1668478;84;21029;-79
2022/06/26 04:54:10;;;;;;;9.80;2.52;;;;;;;21.13;58.72;99008.83;1674260;84;21056;-78
2022/06/26 04:56:38;;;;;;;5.28;2.52;;;;;;;21.11;59.67;99004.58;1678618;84;21056;-79
2022/06/26 04:59:06;;;;;;;6.08;2.58;;;;;;;21.12;59.65;99002.33;1678986;84;21172;-80
2022/06/26 05:01:33;;;;;;;6.95;2.70;;;;;;;21.14;59.97;99003.90;1700845;83;21020;-80
2022/06/26 05:04:01;;;;;;;6.00;2.60;;;;;;;21.15;61.12;99006.05;1630976;83;21032;-79
2022/06/26 05:06:33;;;;;;;5.53;2.35;;;;;;;21.17;60.05;99003.70;1646511;83;20985;-79
2022/06/26 05:09:01;;;;;;;7.53;3.00;;;;;;;21.17;60.93;98999.73;1694180;83;21024;-79
2022/06/26 05:11:28;;;;;;;6.67;2.95;;;;;;;21.17;60.66;98997.55;1686024;84;20990;-79
2022/06/26 05:13:55;;;;;;;5.85;3.05;;;;;;;21.16;60.60;99007.77;1672555;83;21001;-78
2022/06/26 05:16:39;;;;;;;;;;;;;;;21.14;60.04;99000.41;1638221;87;21002;-79
2022/06/26 05:19:06;;;;;;;4.67;2.40;;;;;;;21.09;61.15;99011.32;1646874;84;20098;-79
2022/06/26 05:21:35;;;;;;;8.43;2.52;;;;;;;20.98;61.48;99009.41;1710462;83;21028;-79
2022/06/26 05:24:02;;;;;;;5.15;2.50;;;;;;;20.95;61.13;99008.77;1696857;83;21076;-79
2022/06/26 05:26:29;;;;;;;4.33;2.42;;;;;;;20.90;60.80;99010.42;1702089;83;21044;-79
2022/06/26 05:28:56;;;;;;;6.12;2.25;;;;;;;20.92;60.83;99020.89;1694435;83;21028;-78
2022/06/26 05:31:23;;;;;;;6.67;2.35;;;;;;;20.93;62.33;99023.89;1705016;83;21039;-80
2022/06/26 05:33:50;;;;;;;9.50;3.15;;;;;;;20.97;62.86;99024.05;1702067;83;21543;-79
2022/06/26 05:36:17;;;;;;;5.20;2.40;;;;;;;20.99;61.83;99024.33;1702065;83;21051;-79
2022/06/26 05:38:44;;;;;;;4.25;2.25;;;;;;;21.04;61.07;99033.25;1687819;84;21050;-79
2022/06/26 05:41:11;;;;;;;3.87;2.25;;;;;;;21.06;61.92;99030.86;1676860;84;21518;-78
2022/06/26 05:43:38;;;;;;;5.10;2.20;;;;;;;21.12;60.65;99033.56;1681457;84;21020;-79
2022/06/26 05:46:07;;;;;;;4.72;2.37;;;;;;;21.13;61.01;99037.04;1703245;83;21000;-79
2022/06/26 05:48:52;;;;;;;3.42;2.30;;;;;;;21.17;61.42;99038.06;1681586;84;21007;-79
2022/06/26 05:51:20;;;;;;;5.80;2.30;;;;;;;21.29;61.45;99044.75;1653785;83;21036;-80
2022/06/26 05:53:55;;;;;;;5.83;2.40;;;;;;;21.37;61.74;99045.08;1687478;84;20999;-79
2022/06/26 05:56:32;;;;;;;5.53;2.25;;;;;;;21.42;61.02;99042.94;1707849;83;21055;-79
2022/06/26 05:59:20;;;;;;;6.85;2.40;;;;;;;21.50;60.91;99049.05;1705822;83;21056;-79
2022/06/26 06:01:51;;;;;;;5.30;2.40;;;;;;;21.59;60.87;99052.37;1688602;83;21115;-80
2022/06/26 06:04:20;;;;;;;5.35;2.33;;;;;;;21.70;60.44;99060.84;1687257;83;21084;-78
2022/06/26 06:06:47;;;;;;;5.22;2.20;;;;;;;21.75;60.25;99061.38;1693780;83;21013;-80
2022/06/26 06:09:14;;;;;;;8.98;2.45;;;;;;;21.78;59.89;99061.97;1684011;84;21530;-80
2022/06/26 06:11:43;;;;;;;4.83;2.30;;;;;;;21.78;60.09;99066.43;1673899;84;21040;-79
2022/06/26 06:14:18;;;;;;;8.13;2.55;;;;;;;21.85;59.59;99067.69;1673275;84;20975;-78
2022/06/26 06:16:45;;;;;;;6.75;2.70;;;;;;;21.91;59.70;99071.70;1632952;86;21017;-80
2022/06/26 06:19:12;;;;;;;8.08;2.80;;;;;;;21.94;59.69;99070.98;1653003;85;21815;-79
2022/06/26 06:21:41;;;;;;;6.25;3.10;;;;;;;21.98;60.24;99073.77;1679768;84;21044;-79
2022/06/26 06:24:08;;;;;;;4.92;2.83;;;;;;;21.96;60.04;99074.84;1697551;84;21056;-80
2022/06/26 06:26:35;;;;;;;7.05;2.50;;;;;;;21.96;60.21;99079.65;1668658;83;21479;-79
2022/06/26 06:29:07;;;;;;;6.15;2.70;;;;;;;21.97;60.34;99078.71;1651840;86;21018;-79
2022/06/26 06:31:33;;;;;;;7.70;3.20;;;;;;;21.98;60.20;99076.90;1649658;85;21013;-80
2022/06/26 06:34:00;;;;;;;6.92;2.83;;;;;;;21.99;60.04;99078.61;1630929;87;21533;-79
2022/06/26 06:36:29;;;;;;;7.50;2.70;;;;;;;22.01;60.01;99084.63;1684626;84;21506;-79
2022/06/26 06:38:56;;;;;;;6.50;3.02;;;;;;;22.03;59.86;99085.37;1685678;84;21044;-78
2022/06/26 06:41:23;;;;;;;4.37;2.50;;;;;;;22.08;59.96;99078.41;1688231;84;21539;-80
2022/06/26 06:44:01;;;;;;;10.58;3.10;;;;;;;22.14;59.53;99083.25;1687324;84;21049;-80
2022/06/26 06:46:30;;;;;;;7.60;2.55;;;;;;;22.17;60.03;99073.77;1686407;84;21051;-79
2022/06/26 06:49:01;;;;;;;7.33;2.55;;;;;;;22.21;59.23;99071.26;1662413;84;21050;-79
2022/06/26 06:51:33;;;;;;;5.60;2.60;;;;;;;22.18;59.33;99072.80;1686155;84;21015;-80
2022/06/26 06:54:01;;;;;;;6.37;2.85;;;;;;;22.18;59.09;99076.77;1638761;86;21033;-79
2022/06/26 06:56:30;;;;;;;5.55;2.85;;;;;;;22.18;60.66;99075.45;1705466;82;21104;-80
2022/06/26 06:59:00;;;;;;;12.70;2.75;;;;;;;22.19;59.79;99073.18;1682450;83;21005;-79
2022/06/26 07:01:27;;;;;;;8.33;3.25;;;;;;;22.20;59.80;99076.17;1697696;83;21599;-80
2022/06/26 07:03:53;;;;;;;5.55;3.05;;;;;;;22.24;59.28;99080.31;1693313;83;21032;-79
2022/06/26 07:06:21;;;;;;;8.90;2.75;;;;;;;22.27;59.69;99080.11;1703675;83;21052;-80
2022/06/26 07:08:48;;;;;;;6.80;3.02;;;;;;;22.30;59.04;99081.19;1671779;83;21050;-78
2022/06/26 07:11:15;;;;;;;8.43;2.62;;;;;;;22.29;60.12;99081.33;1632814;86;20964;-79
2022/06/26 07:13:41;;;;;;;7.03;2.70;;;;;;;22.31;59.21;99086.86;1710409;83;21008;-80
2022/06/26 07:16:08;;;;;;;10.00;3.02;;;;;;;22.27;59.36;99081.43;1703745;83;20996;-81
2022/06/26 07:18:35;;;;;;;5.35;2.92;;;;;;;22.24;60.15;99084.29;1685654;84;21018;-80
2022/06/26 07:21:02;;;;;;;8.58;3.30;;;;;;;22.26;59.67;99083.70;1677469;84;21030;-81
2022/06/26 07:23:29;;;;;;;6.75;3.40;;;;;;;22.24;59.96;99082.52;1685126;83;21004;-81
2022/06/26 07:26:01;;;;;;;7.33;2.15;;;;;;;22.22;60.94;99087.05;1707283;83;21021;-81
2022/06/26 07:28:30;;;;;;;5.30;2.30;;;;;;;22.17;61.67;99096.27;1717900;83;21024;-81
2022/06/26 07:30:56;;;;;;;7.20;2.75;;;;;;;22.17;61.50;99102.41;1704880;84;21064;-81
2022/06/26 07:36:09;;;;;;;7.70;3.02;;;;;;;22.08;61.58;99096.94;1697318;83;20953;-81
2022/06/26 07:38:36;;;;;;;5.53;2.67;;;;;;;22.05;61.49;99095.36;1702083;82;21039;-81
2022/06/26 07:41:04;;;;;;;5.00;2.45;;;;;;;22.01;61.76;99097.87;1691479;83;21000;-81
2022/06/26 07:43:31;;;;;;;4.35;2.30;;;;;;;21.99;62.58;99103.27;1707539;83;20993;-81
2022/06/26 07:45:58;;;;;;;6.50;2.55;;;;;;;21.97;61.51;99097.72;1669176;84;21034;-80
2022/06/26 07:48:26;;;;;;;5.15;2.25;;;;;;;21.96;61.29;99099.50;1713957;83;21028;-81
2022/06/26 07:50:55;;;;;;;5.72;2.33;;;;;;;21.95;61.51;99108.41;1697253;83;21528;-81
2022/06/26 07:53:21;;;;;;;4.92;2.62;;;;;;;21.89;61.70;99104.89;1703084;83;21020;-81
2022/06/26 07:55:48;;;;;;;4.42;2.45;;;;;;;21.76;62.57;99109.35;1686490;84;21007;-80
2022/06/26 07:58:15;;;;;;;5.65;2.35;;;;;;;21.78;62.01;99106.95;1703710;83;20981;-80
2022/06/26 08:00:42;;;;;;;5.75;2.15;;;;;;;21.72;62.44;99114.50;1697371;84;21104;-80
2022/06/26 08:03:14;;;;;;;3.67;2.35;;;;;;;21.65;62.11;99120.71;1679269;84;21003;-81
2022/06/26 08:05:41;;;;;;;7.72;3.20;;;;;;;21.61;62.17;99118.75;1679962;84;21015;-81
2022/06/26 08:08:08;;;;;;;5.87;3.00;;;;;;;21.56;62.93;99121.34;1632768;86;21049;-80
2022/06/26 08:10:36;;;;;;;6.53;3.00;;;;;;;21.51;64.12;99126.97;1649042;85;21060;-79
2022/06/26 08:13:05;;;;;;;4.60;2.77;;;;;;;21.46;65.18;99127.75;1656080;85;20984;-80
2022/06/26 08:15:32;;;;;;;5.10;2.40;;;;;;;21.39;65.69;99127.80;1652481;85;21020;-80
2022/06/26 08:17:59;;;;;;;5.45;2.95;;;;;;;21.39;67.82;99138.38;1646496;85;21010;-80
2022/06/26 08:20:26;;;;;;;6.03;3.22;;;;;;;21.39;67.78;99134.41;1708559;83;21482;-80
2022/06/26 08:22:53;;;;;;;9.13;3.40;;;;;;;21.40;66.68;99144.85;1686436;83;21022;-80
2022/06/26 08:25:20;;;;;;;8.75;2.83;;;;;;;21.43;66.41;99146.01;1690718;83;21001;-80
2022/06/26 08:27:47;;;;;;;6.67;2.87;;;;;;;21.41;67.00;99140.44;1686451;83;21028;-80
2022/06/26 08:30:14;;;;;;;4.03;2.65;;;;;;;21.42;67.61;99148.23;1704141;83;21481;-81
2022/06/26 08:32:40;;;;;;;7.22;2.80;;;;;;;21.48;66.69;99154.94;1677522;83;20997;-79
2022/06/26 08:35:10;;;;;;;4.75;2.70;;;;;;;21.44;67.23;99160.07;1697785;83;21095;-80
2022/06/26 08:37:37;;;;;;;8.25;2.85;;;;;;;21.37;68.65;99163.59;1684587;83;21435;-79
2022/06/26 08:40:05;;;;;;;7.65;3.30;;;;;;;21.38;67.72;99167.08;1690751;84;20991;-80
2022/06/26 08:42:32;;;;;;;5.33;2.90;;;;;;;21.35;67.67;99167.30;1686344;84;21022;-80
2022/06/26 08:44:59;;;;;;;9.00;3.55;;;;;;;21.31;70.99;99169.30;1686965;84;21017;-80
2022/06/26 08:47:29;;;;;;;5.97;3.17;;;;;;;21.34;67.73;99174.85;1669081;84;21065;-79
2022/06/26 08:49:58;;;;;;;5.55;2.95;;;;;;;21.25;69.16;99171.89;1669814;84;21016;-81
2022/06/26 08:52:28;;;;;;;6.58;2.42;;;;;;;21.21;70.61;99167.76;1672577;84;21507;-80
2022/06/26 08:54:55;;;;;;;5.40;2.92;;;;;;;21.26;68.98;99175.37;1635329;86;21028;-80
2022/06/26 08:57:23;;;;;;;5.65;2.95;;;;;;;21.29;68.69;99179.59;1674912;84;21152;-82
2022/06/26 08:59:50;;;;;;;7.10;2.35;;;;;;;21.32;69.06;99179.40;1678301;83;21493;-82
2022/06/26 09:02:17;;;;;;;5.37;2.75;;;;;;;21.35;70.11;99181.36;1703791;83;21064;-81
2022/06/26 09:04:44;;;;;;;5.05;2.60;;;;;;;21.37;69.72;99184.75;1707240;83;20997;-81
2022/06/26 09:07:11;;;;;;;9.73;2.75;;;;;;;21.38;70.80;99186.91;1705403;84;21070;-80
2022/06/26 09:09:40;;;;;;;8.03;2.77;;;;;;;21.35;70.62;99191.94;1680160;83;20971;-80
2022/06/26 09:12:07;;;;;;;6.83;2.80;;;;;;;21.35;70.62;99191.10;1681065;84;21004;-81
2022/06/26 09:14:34;;;;;;;6.28;2.98;;;;;;;21.39;70.32;99189.94;1673924;84;20982;-81
2022/06/26 09:17:02;;;;;;;5.40;3.08;;;;;;;21.36;71.31;99192.78;1705671;83;21492;-82
2022/06/26 09:19:36;;;;;;;4.90;3.10;;;;;;;21.30;70.77;99187.91;1688899;83;20977;-79
2022/06/26 09:22:13;;;;;;;8.13;3.52;;;;;;;21.34;71.20;99190.72;1709009;83;20953;-80
2022/06/26 09:24:54;;;;;;;6.70;3.95;;;;;;;21.33;71.23;99183.72;1674719;84;21501;-79
2022/06/26 09:27:21;;;;;;;9.40;3.70;;;;;;;21.31;73.09;99176.37;1674633;84;21014;-79
2022/06/26 09:29:54;;;;;;;9.10;3.60;;;;;;;21.28;73.08;99180.08;1700382;83;21660;-79
2022/06/26 09:32:22;;;;;;;7.65;4.33;;;;;;;21.28;73.57;99175.27;1690420;84;21464;-79
2022/06/26 09:34:54;;;;;;;6.60;3.42;;;;;;;21.30;73.63;99183.95;1684184;83;21032;-80
2022/06/26 09:37:23;;;;;;;6.78;3.02;;;;;;;21.23;75.27;99184.36;1701419;83;20992;-79
2022/06/26 09:40:00;;;;;;;8.68;3.40;;;;;;;21.19;74.47;99182.88;1682538;83;21514;-79
2022/06/26 09:42:27;;;;;;;6.03;2.90;;;;;;;21.21;73.99;99187.59;1703364;83;21028;-80
2022/06/26 09:44:57;;;;;;;5.33;3.10;;;;;;;21.24;73.51;99183.88;1704967;83;21040;-78
2022/06/26 09:47:30;;;;;;;6.08;2.80;;;;;;;21.26;73.53;99192.07;1699257;83;20993;-78
2022/06/26 09:49:58;;;;;;;;;;;;;;;21.29;73.43;99192.81;1708581;83;21552;-79
2022/06/26 09:52:28;;;;;;;6.87;3.20;;;;;;;21.30;75.13;99188.75;1697326;83;20135;-78
2022/06/26 09:54:58;;;;;;;6.72;3.52;;;;;;;21.41;72.46;99187.55;1703406;83;21036;-78
2022/06/26 09:57:26;;;;;;;6.90;3.80;;;;;;;21.37;72.97;99183.42;1692023;83;21643;-78
2022/06/26 09:59:55;;;;;;;7.40;3.60;;;;;;;21.39;72.50;99183.33;1679817;83;20937;-79
2022/06/26 10:08:04;;;;;;;5.78;3.00;;;;;;;21.16;72.39;99177.78;1691665;83;21072;-78
2022/06/26 10:10:34;;;;;;;6.58;3.20;;;;;;;21.13;72.88;99181.10;1686892;83;21043;-79
2022/06/26 10:13:05;;;;;;;8.03;4.08;;;;;;;21.04;72.27;99175.97;1693996;83;21064;-79
2022/06/26 10:15:56;;;;;;;6.08;4.17;;;;;;;21.00;72.79;99179.29;1681592;84;21004;-78
2022/06/26 10:18:56;;;;;;;8.28;4.22;;;;;;;21.02;74.60;99182.67;1691257;83;21036;-79
2022/06/26 10:21:23;;;;;;;10.03;4.20;;;;;;;21.16;73.41;99179.59;1675095;84;21009;-80
2022/06/26 10:23:55;;;;;;;8.58;4.65;;;;;;;21.16;73.56;99171.17;1676291;84;21017;-78
2022/06/26 10:26:23;;;;;;;7.17;4.70;;;;;;;21.19;75.15;99171.47;1704028;84;21063;-80
2022/06/26 10:29:05;;;;;;;11.75;5.30;;;;;;;21.25;75.40;99167.92;1701789;83;21083;-81
2022/06/26 10:31:47;;;;;;;11.43;4.60;;;;;;;21.32;75.01;99167.50;1677674;85;21091;-79
2022/06/26 10:34:22;;;;;;;11.85;5.28;;;;;;;21.44;74.22;99166.20;1682898;83;21035;-79
2022/06/26 10:37:06;;;;;;;8.08;5.37;;;;;;;21.41;74.35;99157.63;1690809;83;21140;-79
2022/06/26 10:39:42;;;;;;;10.48;6.47;;;;;;;21.49;74.92;99159.74;1697549;83;21044;-79
2022/06/26 10:45:32;;;;;;;12.43;7.20;;;;;;;21.57;74.38;99154.80;1695925;83;20992;-79
2022/06/26 10:48:04;;;;;;;11.93;5.95;;;;;;;21.67;73.52;99154.52;1703585;83;20988;-79
2022/06/26 10:50:39;;;;;;;9.08;5.85;;;;;;;21.61;74.79;99158.92;1666390;84;21023;-79
2022/06/26 10:53:32;;;;;;;9.83;5.40;;;;;;;21.67;74.02;99154.52;1710360;83;21012;-79
2022/06/26 10:56:04;;;;;;;9.48;5.58;;;;;;;21.76;72.64;99150.37;1696483;83;21107;-80
2022/06/26 10:58:38;;;;;;;7.85;5.00;;;;;;;21.81;72.18;99156.20;1706027;83;21080;-78
2022/06/26 11:01:08;;;;;;;8.38;4.92;;;;;;;21.81;71.11;99150.42;1697102;83;21524;-79
2022/06/26 11:03:36;;;;;;;8.13;4.58;;;;;;;21.82;72.28;99143.31;1706359;83;21012;-81
2022/06/26 11:06:15;;;;;;;6.37;3.95;;;;;;;21.90;72.11;99135.67;1699190;83;20976;-79
2022/06/26 11:08:50;;;;;;;14.53;4.00;;;;;;;21.96;71.91;99127.30;1708584;83;21126;-80
2022/06/26 11:11:30;;;;;;;11.57;4.15;;;;;;;22.07;71.51;99132.32;1692764;83;21040;-79
2022/06/26 11:14:06;;;;;;;8.55;3.70;;;;;;;22.23;72.29;99131.08;1725244;83;21005;-79
2022/06/26 11:16:41;;;;;;;6.83;3.50;;;;;;;22.43;71.41;99134.12;1701290;83;21547;-80
2022/06/26 11:19:24;;;;;;;5.92;3.60;;;;;;;22.42;70.25;99125.33;1696724;83;21013;-80
2022/06/26 11:22:10;;;;;;;;;;;;;;;22.57;69.89;99118.04;1690844;84;21011;-80
2022/06/26 11:24:49;;;;;;;4.75;2.90;;;;;;;22.75;69.25;99124.25;1705558;84;20115;-79
2022/06/26 11:27:16;;;;;;;6.35;3.80;;;;;;;22.84;67.61;99117.78;1656612;85;20991;-80
2022/06/26 11:29:46;;;;;;;6.72;3.90;;;;;;;22.99;67.47;99110.95;1716005;83;21036;-81
2022/06/26 11:32:13;;;;;;;6.22;3.58;;;;;;;23.06;66.94;99112.22;1697184;83;21060;-80
2022/06/26 11:34:55;;;;;;;8.70;4.58;;;;;;;23.14;66.63;99105.84;1705709;83;21016;-80
2022/06/26 11:37:35;;;;;;;7.70;4.00;;;;;;;23.30;66.73;99096.67;1706296;83;20996;-81
2022/06/26 11:40:14;;;;;;;6.55;3.87;;;;;;;23.50;66.00;99095.98;1688146;83;21012;-81
2022/06/26 11:42:41;;;;;;;6.92;4.05;;;;;;;23.69;65.78;99086.06;1684420;83;20989;-80
2022/06/26 11:45:09;;;;;;;6.20;3.98;;;;;;;23.98;64.78;99085.59;1706100;83;20984;-80
2022/06/26 11:47:38;;;;;;;6.35;3.80;;;;;;;24.25;64.04;99081.14;1672145;83;20983;-81
2022/06/26 11:50:07;;;;;;;6.33;3.12;;;;;;;24.56;63.34;99069.36;1720788;83;21051;-81
2022/06/26 11:52:33;;;;;;;5.28;3.22;;;;;;;24.87;62.34;99076.06;1710098;83;21028;-81
2022/06/26 11:55:01;;;;;;;7.40;3.33;;;;;;;25.22;62.27;99069.59;1720013;83;21004;-82
2022/06/26 11:57:28;;;;;;;8.15;3.40;;;;;;;25.47;59.76;99067.81;1714083;81;21071;-82